Nordic — CNA5129 — position and weather

sailwx.info

Track history (hours):
 
Tides and Currents Weather Stations Pressure Air Temp Water Temp Dewpoint Dewpoint Depression Visibility Wind Speed Wind Dir Waves Ship Positions

Nordic

Last reported at 2017-Nov-10 17:31 UTC. Time now 2017-Nov-20 06:23 UTC.
Position N 24°08' W 016°08'.
Warning: this ship's position is 9 days out of date.

Length 58 m; draft 5 m.

Type: Fishing. MMSI: 242543300.

Date/timePositionNaut miles runAvg speedWind from/ knotsBaromVisibWave heightAir tempDewpointWater temp
2017-Nov-10 17:31N 24°08' W 016°08'1 3.9
2017-Nov-10 17:09N 24°07' W 016°09'1 4.5
2017-Nov-10 17:00N 24°06' W 016°10'2 4.3
2017-Nov-10 16:31N 24°04' W 016°10'2 3.2
2017-Nov-10 16:00N 24°04' W 016°08'3 5.2
2017-Nov-10 15:30N 24°07' W 016°09'2 5.0
2017-Nov-10 15:00N 24°09' W 016°07'1 1.9
2017-Nov-10 14:30N 24°08' W 016°08'2 3.2
2017-Nov-10 14:01N 24°07' W 016°09'2 4.1
2017-Nov-10 13:30N 24°05' W 016°10'2 4.1
2017-Nov-10 13:00N 24°03' W 016°10'2 4.8
2017-Nov-10 12:31N 24°01' W 016°11'1 1.9
2017-Nov-10 11:54N 24°00' W 016°12'1 1.9
2017-Nov-10 11:31N 24°01' W 016°12'2 4.4
2017-Nov-10 11:00N 24°03' W 016°10'  
Track history (hours):
 
Tides and Currents Weather Stations Pressure Air Temp Water Temp Dewpoint Dewpoint Depression Visibility Wind Speed Wind Dir Waves Ship Positions

Nordic

Last reported at 2017-Nov-10 17:31 UTC. Time now 2017-Nov-20 06:23 UTC.
Position N 24°08' W 016°08'.
Warning: this ship's position is 9 days out of date.

Length 58 m; draft 5 m.

Type: Fishing. MMSI: 242543300.

Date/timePositionNaut miles runAvg speedWind from/ knotsBaromVisibWave heightAir tempDewpointWater temp
2017-Nov-10 17:31N 24°08' W 016°08'1 3.9
2017-Nov-10 17:09N 24°07' W 016°09'1 4.5
2017-Nov-10 17:00N 24°06' W 016°10'2 4.3
2017-Nov-10 16:31N 24°04' W 016°10'2 3.2
2017-Nov-10 16:00N 24°04' W 016°08'3 5.2
2017-Nov-10 15:30N 24°07' W 016°09'2 5.0
2017-Nov-10 15:00N 24°09' W 016°07'1 1.9
2017-Nov-10 14:30N 24°08' W 016°08'2 3.2
2017-Nov-10 14:01N 24°07' W 016°09'2 4.1
2017-Nov-10 13:30N 24°05' W 016°10'2 4.1
2017-Nov-10 13:00N 24°03' W 016°10'2 4.8
2017-Nov-10 12:31N 24°01' W 016°11'1 1.9
2017-Nov-10 11:54N 24°00' W 016°12'1 1.9
2017-Nov-10 11:31N 24°01' W 016°12'2 4.4
2017-Nov-10 11:00N 24°03' W 016°10'  

Dump ship's entire track history